Terminal Aerodrome Forecast
Issued by NWS

Current Version | Previous Version | Text Only | Print | Product List | Glossary On
Versions: 1 2 3 4 5 6 7 8 9 10 11 12 13 14 15 16 17 18 19 20 21 22 23
759
FTUS45 KFGZ 012320
TAFGCN
TAF
KGCN 012320Z 0200/0224 07005KT P6SM SCT035
     FM020400 VRB02KT P6SM VCFG SCT012
     FM020600 VRB02KT 3SM BR BKN008
     FM021500 VRB04KT P6SM SCT020
     FM021800 07007KT P6SM BKN040 PROB30 0218/0224 5SM -SHRA=

USA.gov is the U.S. government's official web portal to all federal, state and local government web resources and services.